createdAt,value
2022-12-27T00:01:54.795Z,7.76
2022-12-27T00:04:21.480Z,7.79
2022-12-27T00:06:48.141Z,7.68
2022-12-27T00:09:14.802Z,7.46
2022-12-27T00:11:41.422Z,7.39
2022-12-27T00:14:08.267Z,7.47
2022-12-27T00:16:35.167Z,7.35
2022-12-27T00:19:02.512Z,7.29
2022-12-27T00:21:29.176Z,7.31
2022-12-27T00:23:57.653Z,7.25
2022-12-27T00:26:30.173Z,7.10
2022-12-27T00:28:57.794Z,7.11
2022-12-27T00:31:26.591Z,6.80
2022-12-27T00:33:56.009Z,6.85
2022-12-27T00:36:25.501Z,6.90
2022-12-27T00:38:53.368Z,7.00
2022-12-27T00:41:20.719Z,7.21
2022-12-27T00:43:48.010Z,7.15
2022-12-27T00:46:15.527Z,7.25
2022-12-27T00:48:42.540Z,7.23
2022-12-27T00:51:22.002Z,7.29
2022-12-27T00:53:49.320Z,7.33
2022-12-27T00:56:18.697Z,7.41
2022-12-27T00:58:45.290Z,7.45
2022-12-27T01:01:15.680Z,7.47
2022-12-27T01:03:42.437Z,7.44
2022-12-27T01:06:16.304Z,7.42
2022-12-27T01:08:43.280Z,7.40
2022-12-27T01:11:11.202Z,7.32
2022-12-27T01:13:38.960Z,7.37
2022-12-27T01:16:14.248Z,7.44
2022-12-27T01:18:40.899Z,7.23
2022-12-27T01:21:09.206Z,7.31
2022-12-27T01:23:36.858Z,7.37
2022-12-27T01:26:07.594Z,7.43
2022-12-27T01:28:35.044Z,7.24
2022-12-27T01:31:12.297Z,7.11
2022-12-27T01:33:39.333Z,7.09
2022-12-27T01:36:13.818Z,7.11
2022-12-27T01:38:42.951Z,7.28
2022-12-27T01:41:40.214Z,7.49
2022-12-27T01:44:34.792Z,7.58
2022-12-27T01:47:03.210Z,7.61
2022-12-27T01:49:30.135Z,7.62
2022-12-27T01:51:56.877Z,7.54
2022-12-27T01:54:24.090Z,7.16
2022-12-27T01:56:50.808Z,7.17
2022-12-27T01:59:17.676Z,7.07
2022-12-27T02:01:47.901Z,7.04
2022-12-27T02:04:19.027Z,7.00
2022-12-27T02:06:47.087Z,6.91
2022-12-27T02:09:33.021Z,6.66
2022-12-27T02:12:02.059Z,6.82
2022-12-27T02:14:32.537Z,6.76
2022-12-27T02:17:02.585Z,6.75
2022-12-27T02:19:41.406Z,6.32
2022-12-27T02:23:08.077Z,6.14
2022-12-27T02:25:59.702Z,6.16
2022-12-27T02:28:47.426Z,5.89
2022-12-27T02:31:24.952Z,5.91
2022-12-27T02:33:53.271Z,5.75
2022-12-27T02:36:27.408Z,5.60
2022-12-27T02:38:58.930Z,5.60
2022-12-27T02:41:46.274Z,5.53
2022-12-27T02:44:35.571Z,5.68
2022-12-27T02:47:21.176Z,5.54
2022-12-27T02:50:06.494Z,5.68
2022-12-27T02:52:57.704Z,5.61
2022-12-27T02:55:43.137Z,5.54
2022-12-27T02:58:25.103Z,5.56
2022-12-27T03:01:47.286Z,5.66
2022-12-27T03:04:38.039Z,5.63
2022-12-27T03:07:32.867Z,5.46
2022-12-27T03:10:33.048Z,5.47
2022-12-27T03:14:03.295Z,5.56
2022-12-27T03:16:37.990Z,5.66
2022-12-27T03:19:40.809Z,5.46
2022-12-27T03:22:28.174Z,5.51
2022-12-27T03:25:15.639Z,5.50
2022-12-27T03:27:44.427Z,5.42
2022-12-27T03:30:31.038Z,5.46
2022-12-27T03:33:12.972Z,5.38
2022-12-27T03:36:27.470Z,5.31
2022-12-27T03:39:15.379Z,5.13
2022-12-27T03:42:12.355Z,5.17
2022-12-27T03:44:40.124Z,5.27
2022-12-27T03:47:22.764Z,5.14
2022-12-27T03:50:03.496Z,5.27
2022-12-27T03:53:04.699Z,5.24
2022-12-27T03:55:33.477Z,5.07
2022-12-27T03:58:00.584Z,5.09
2022-12-27T04:00:27.402Z,5.17
2022-12-27T04:02:54.220Z,5.07
2022-12-27T04:05:20.990Z,5.22
2022-12-27T04:08:06.405Z,5.04
2022-12-27T04:10:51.700Z,5.08
2022-12-27T04:13:37.040Z,5.01
2022-12-27T04:16:22.308Z,5.02
2022-12-27T04:19:07.480Z,4.89
2022-12-27T04:21:52.527Z,5.09
2022-12-27T04:24:37.993Z,5.04
2022-12-27T04:27:23.384Z,5.06
2022-12-27T04:30:08.225Z,5.24
2022-12-27T04:32:53.441Z,5.29
2022-12-27T04:35:20.045Z,5.25
2022-12-27T04:37:46.624Z,5.13
2022-12-27T04:40:31.481Z,5.00
2022-12-27T04:43:16.278Z,5.03
2022-12-27T04:46:01.867Z,4.99
2022-12-27T04:48:48.292Z,5.04
2022-12-27T04:51:33.835Z,4.99
2022-12-27T04:54:19.041Z,5.07
2022-12-27T04:56:45.681Z,5.13
2022-12-27T04:59:30.567Z,5.13
2022-12-27T05:02:03.499Z,4.93
2022-12-27T05:04:35.473Z,4.99
2022-12-27T05:07:25.317Z,4.97
2022-12-27T05:10:10.699Z,5.14
2022-12-27T05:12:56.011Z,5.21
2022-12-27T05:15:22.651Z,5.02
2022-12-27T05:17:49.282Z,5.02
2022-12-27T05:20:16.099Z,4.99
2022-12-27T05:23:00.913Z,5.32
2022-12-27T05:25:38.391Z,5.51
2022-12-27T05:28:07.072Z,5.40
2022-12-27T05:30:35.394Z,5.21
2022-12-27T05:33:02.695Z,5.13
2022-12-27T05:35:29.452Z,5.04
2022-12-27T05:37:56.093Z,4.92
2022-12-27T05:40:24.065Z,4.77
2022-12-27T05:42:51.103Z,4.91
2022-12-27T05:45:18.270Z,4.69
2022-12-27T05:47:45.029Z,4.82
2022-12-27T05:50:12.088Z,4.77
2022-12-27T05:52:41.143Z,4.75
2022-12-27T05:55:09.127Z,4.80
2022-12-27T05:57:36.138Z,4.83
2022-12-27T06:00:06.335Z,4.75
2022-12-27T06:02:33.125Z,4.76
2022-12-27T06:04:59.873Z,4.75
2022-12-27T06:07:26.468Z,4.72
2022-12-27T06:09:54.241Z,4.75
2022-12-27T06:12:20.875Z,4.64
2022-12-27T06:14:47.521Z,4.74
2022-12-27T06:17:14.177Z,4.73
2022-12-27T06:19:40.839Z,4.68
2022-12-27T06:22:07.429Z,4.66
2022-12-27T06:24:34.052Z,4.66
2022-12-27T06:27:00.697Z,4.69
2022-12-27T06:29:27.292Z,4.69
2022-12-27T06:31:53.912Z,4.93
2022-12-27T06:34:20.543Z,4.99
2022-12-27T06:36:50.886Z,4.99
2022-12-27T06:39:19.093Z,5.04
2022-12-27T06:41:46.191Z,5.03
2022-12-27T06:44:12.786Z,4.99
2022-12-27T06:46:39.415Z,4.91
2022-12-27T06:49:06.077Z,4.70
2022-12-27T06:51:34.276Z,4.63
2022-12-27T06:54:00.927Z,4.47
2022-12-27T06:56:27.624Z,4.38
2022-12-27T06:58:54.680Z,4.36
2022-12-27T07:01:24.342Z,4.31
2022-12-27T07:03:56.924Z,4.24
2022-12-27T07:06:24.752Z,4.08
2022-12-27T07:08:51.760Z,4.11
2022-12-27T07:11:19.635Z,4.22
2022-12-27T07:13:49.277Z,4.20
2022-12-27T07:16:20.094Z,4.25
2022-12-27T07:18:49.818Z,4.34
2022-12-27T07:21:19.939Z,4.27
2022-12-27T07:23:47.011Z,4.42
2022-12-27T07:26:19.714Z,4.69
2022-12-27T07:28:47.161Z,4.97
2022-12-27T07:31:19.250Z,5.19
2022-12-27T07:33:46.928Z,5.21
2022-12-27T07:36:18.768Z,5.40
2022-12-27T07:38:45.859Z,5.53
2022-12-27T07:41:13.911Z,5.62
2022-12-27T07:43:40.850Z,5.72
2022-12-27T07:46:10.660Z,5.70
2022-12-27T07:48:37.803Z,5.73
2022-12-27T07:51:05.245Z,5.81
2022-12-27T07:53:32.000Z,5.88
2022-12-27T07:55:58.887Z,5.96
2022-12-27T07:58:25.774Z,6.02
2022-12-27T08:00:53.015Z,6.09
2022-12-27T08:03:20.398Z,6.08
2022-12-27T08:05:53.126Z,5.85
2022-12-27T08:08:23.535Z,6.05
2022-12-27T08:10:50.374Z,6.03
2022-12-27T08:13:16.986Z,6.14
2022-12-27T08:15:44.335Z,6.01
2022-12-27T08:18:11.113Z,5.73
2022-12-27T08:20:37.737Z,5.53
2022-12-27T08:23:04.770Z,5.81
2022-12-27T08:25:31.377Z,5.83
2022-12-27T08:28:10.452Z,5.99
2022-12-27T08:30:38.261Z,5.94
2022-12-27T08:33:04.978Z,5.99
2022-12-27T08:38:18.669Z,6.21
2022-12-27T08:40:46.260Z,6.34
2022-12-27T08:43:14.288Z,6.34
2022-12-27T08:45:41.007Z,6.41
2022-12-27T08:48:08.050Z,6.33
2022-12-27T08:50:34.806Z,6.44
2022-12-27T08:53:03.711Z,6.47
2022-12-27T08:55:30.691Z,6.54
2022-12-27T08:58:13.809Z,6.41
2022-12-27T09:00:42.546Z,6.45
2022-12-27T09:03:09.945Z,6.52
2022-12-27T09:05:41.479Z,6.60
2022-12-27T09:08:08.637Z,6.62
2022-12-27T09:10:35.288Z,6.70
2022-12-27T09:13:01.900Z,6.88
2022-12-27T09:15:28.561Z,7.23
2022-12-27T09:17:55.165Z,7.11
2022-12-27T09:20:21.773Z,7.11
2022-12-27T09:22:48.433Z,6.86
2022-12-27T09:25:15.166Z,6.91
2022-12-27T09:27:41.850Z,7.11
2022-12-27T09:30:08.999Z,6.91
2022-12-27T09:32:35.690Z,7.25
2022-12-27T09:35:03.611Z,7.18
2022-12-27T09:37:31.797Z,7.22
2022-12-27T09:39:58.432Z,7.34
2022-12-27T09:43:07.588Z,7.46
2022-12-27T09:45:38.122Z,7.60
2022-12-27T09:48:10.307Z,7.99
2022-12-27T09:50:47.570Z,8.47
2022-12-27T09:53:24.855Z,8.74
2022-12-27T09:55:58.063Z,8.90
2022-12-27T09:58:43.144Z,8.61
2022-12-27T10:01:21.669Z,9.00
2022-12-27T10:03:49.280Z,9.16
2022-12-27T10:06:27.692Z,8.86
2022-12-27T10:09:21.943Z,9.25
2022-12-27T10:12:18.909Z,9.60
2022-12-27T10:15:07.888Z,9.38
2022-12-27T10:17:53.424Z,9.24
2022-12-27T10:20:59.549Z,9.85
2022-12-27T10:23:30.203Z,10.37
2022-12-27T10:26:04.222Z,10.18
2022-12-27T10:28:43.222Z,10.53
2022-12-27T10:31:18.603Z,11.12
2022-12-27T10:33:47.881Z,11.43
2022-12-27T10:36:19.375Z,10.75
2022-12-27T10:38:45.983Z,11.13
2022-12-27T10:41:40.607Z,11.57
2022-12-27T10:44:11.926Z,12.07
2022-12-27T10:46:41.271Z,12.23
2022-12-27T10:49:22.488Z,11.84
2022-12-27T10:51:51.334Z,11.98
2022-12-27T10:54:24.036Z,12.65
2022-12-27T10:56:51.111Z,13.08
2022-12-27T10:59:35.768Z,12.57
2022-12-27T11:02:02.832Z,13.21
2022-12-27T11:04:31.132Z,13.22
2022-12-27T11:06:59.935Z,13.66
2022-12-27T11:09:36.799Z,13.91
2022-12-27T11:12:28.829Z,13.54
2022-12-27T11:15:01.485Z,14.01
2022-12-27T11:18:09.340Z,13.96
2022-12-27T11:20:44.838Z,14.16
2022-12-27T11:23:18.527Z,13.75
2022-12-27T11:25:56.999Z,13.00
2022-12-27T11:28:42.980Z,10.35
2022-12-27T11:31:18.871Z,11.15
2022-12-27T11:33:49.033Z,11.92
2022-12-27T11:36:25.381Z,12.08
2022-12-27T11:38:52.050Z,11.86
2022-12-27T11:41:46.777Z,11.71
2022-12-27T11:44:24.557Z,11.35
2022-12-27T11:46:59.538Z,12.37
2022-12-27T11:49:37.038Z,12.60
2022-12-27T11:52:12.765Z,12.51
2022-12-27T11:54:45.309Z,13.29
2022-12-27T11:57:15.266Z,13.91
2022-12-27T12:00:27.296Z,12.66
2022-12-27T12:02:59.906Z,12.97
2022-12-27T12:05:40.308Z,14.07
2022-12-27T12:08:23.037Z,13.97
2022-12-27T12:10:55.482Z,14.22
2022-12-27T12:13:43.499Z,15.13
2022-12-27T12:16:51.874Z,14.61
2022-12-27T12:19:55.699Z,13.89
2022-12-27T12:22:34.446Z,14.47
2022-12-27T12:25:28.471Z,14.87
2022-12-27T12:28:56.382Z,14.97
2022-12-27T12:31:44.344Z,14.77
2022-12-27T12:34:59.002Z,14.66
2022-12-27T12:37:59.418Z,14.85
2022-12-27T12:40:38.068Z,13.91
2022-12-27T12:43:28.109Z,13.99
2022-12-27T12:46:16.607Z,14.80
2022-12-27T12:49:10.949Z,14.64
2022-12-27T12:51:43.498Z,14.35
2022-12-27T12:54:36.507Z,14.08
2022-12-27T12:57:20.596Z,14.05
2022-12-27T13:00:08.919Z,13.71
2022-12-27T13:02:35.711Z,13.81
2022-12-27T13:05:31.689Z,14.33
2022-12-27T13:08:22.293Z,14.25
2022-12-27T13:11:02.104Z,13.21
2022-12-27T13:13:34.489Z,13.67
2022-12-27T13:16:32.691Z,13.36
2022-12-27T13:19:30.351Z,13.05
2022-12-27T13:22:18.732Z,13.00
2022-12-27T13:25:10.991Z,12.55
2022-12-27T13:27:55.951Z,12.97
2022-12-27T13:30:25.168Z,12.37
2022-12-27T13:33:14.940Z,11.99
2022-12-27T13:36:07.101Z,12.42
2022-12-27T13:39:01.609Z,12.73
2022-12-27T13:41:34.215Z,12.64
2022-12-27T13:44:11.939Z,12.85
2022-12-27T13:47:19.015Z,12.23
2022-12-27T13:50:17.927Z,12.15
2022-12-27T13:53:03.836Z,12.28
2022-12-27T13:55:56.077Z,12.31
2022-12-27T13:58:31.524Z,12.11
2022-12-27T14:01:24.211Z,12.01
2022-12-27T14:04:38.742Z,11.69
2022-12-27T14:07:25.173Z,12.03
2022-12-27T14:10:04.372Z,11.75
2022-12-27T14:12:57.478Z,11.83
2022-12-27T14:15:29.029Z,11.43
2022-12-27T14:18:07.492Z,10.70
2022-12-27T14:20:49.333Z,10.78
2022-12-27T14:23:43.452Z,10.81
2022-12-27T14:26:47.704Z,11.03
2022-12-27T14:29:26.414Z,10.74
2022-12-27T14:32:13.573Z,10.40
2022-12-27T14:35:01.443Z,10.65
2022-12-27T14:38:03.286Z,10.58
2022-12-27T14:40:54.759Z,10.75
2022-12-27T14:43:58.469Z,11.13
2022-12-27T14:46:43.654Z,11.31
2022-12-27T14:49:38.280Z,11.25
2022-12-27T14:52:42.607Z,11.59
2022-12-27T14:55:40.844Z,11.65
2022-12-27T14:58:17.487Z,11.56
2022-12-27T15:00:58.129Z,11.61
2022-12-27T15:03:43.378Z,11.22
2022-12-27T15:06:40.085Z,11.40
2022-12-27T15:09:35.751Z,11.38
2022-12-27T15:12:23.955Z,11.14
2022-12-27T15:15:08.938Z,11.07
2022-12-27T15:17:48.241Z,10.95
2022-12-27T15:20:37.797Z,10.90
2022-12-27T15:23:22.644Z,10.45
2022-12-27T15:26:06.780Z,10.34
2022-12-27T15:28:48.383Z,10.61
2022-12-27T15:31:56.671Z,10.37
2022-12-27T15:34:30.561Z,10.45
2022-12-27T15:36:57.481Z,10.27
2022-12-27T15:39:32.987Z,10.35
2022-12-27T15:42:08.807Z,10.14
2022-12-27T15:45:12.676Z,9.80
2022-12-27T15:48:00.990Z,9.82
2022-12-27T15:50:42.497Z,9.77
2022-12-27T15:54:01.793Z,9.57
2022-12-27T15:56:52.516Z,9.36
2022-12-27T15:59:34.251Z,9.47
2022-12-27T16:02:36.679Z,9.47
2022-12-27T16:05:25.776Z,9.30
2022-12-27T16:08:12.432Z,9.14
2022-12-27T16:10:42.037Z,8.89
2022-12-27T16:13:11.609Z,8.73
2022-12-27T16:15:47.774Z,8.86
2022-12-27T16:18:23.729Z,8.92
2022-12-27T16:21:19.173Z,8.49
2022-12-27T16:23:45.714Z,7.61
2022-12-27T16:26:26.302Z,7.90
2022-12-27T16:29:14.263Z,8.02
2022-12-27T16:31:50.595Z,8.29
2022-12-27T16:34:30.234Z,8.37
2022-12-27T16:37:00.770Z,8.36
2022-12-27T16:39:39.118Z,8.17
2022-12-27T16:42:08.299Z,8.21
2022-12-27T16:44:51.069Z,8.31
2022-12-27T16:47:29.761Z,8.05
2022-12-27T16:50:14.548Z,7.75
2022-12-27T16:52:53.988Z,7.72
2022-12-27T16:55:42.307Z,7.54
2022-12-27T16:58:18.045Z,7.66
2022-12-27T17:00:51.877Z,7.60
2022-12-27T17:03:21.019Z,7.51
2022-12-27T17:06:21.578Z,7.60
2022-12-27T17:08:36.528Z,7.28
2022-12-27T17:11:25.386Z,7.22
2022-12-27T17:14:04.182Z,7.31
2022-12-27T17:16:45.904Z,6.87
2022-12-27T17:19:37.299Z,7.03
2022-12-27T17:22:08.042Z,6.80
2022-12-27T17:24:34.964Z,7.00
2022-12-27T17:27:17.041Z,7.19
2022-12-27T17:30:14.510Z,6.98
2022-12-27T17:33:19.456Z,7.07
2022-12-27T17:35:58.245Z,6.77
2022-12-27T17:38:57.166Z,6.79
2022-12-27T17:42:02.747Z,6.57
2022-12-27T17:45:13.862Z,6.45
2022-12-27T17:47:48.409Z,6.52
2022-12-27T17:50:20.035Z,6.37
2022-12-27T17:53:24.928Z,6.58
2022-12-27T17:56:28.716Z,6.62
2022-12-27T17:59:08.363Z,6.60
2022-12-27T18:01:40.733Z,6.57
2022-12-27T18:04:07.960Z,6.43
2022-12-27T18:06:37.152Z,6.26
2022-12-27T18:09:04.594Z,5.80
2022-12-27T18:11:34.869Z,6.01
2022-12-27T18:14:02.041Z,5.81
2022-12-27T18:16:47.832Z,5.46
2022-12-27T18:19:19.728Z,5.25
2022-12-27T18:21:57.724Z,5.58
2022-12-27T18:24:33.007Z,5.34
2022-12-27T18:27:01.751Z,5.39
2022-12-27T18:29:28.567Z,5.77
2022-12-27T18:32:00.967Z,5.79
2022-12-27T18:34:46.457Z,5.85
2022-12-27T18:37:18.889Z,5.97
2022-12-27T18:39:54.115Z,5.86
2022-12-27T18:42:31.719Z,5.55
2022-12-27T18:45:15.449Z,5.71
2022-12-27T18:47:47.235Z,5.65
2022-12-27T18:50:19.321Z,5.64
2022-12-27T18:52:52.968Z,5.31
2022-12-27T18:55:27.939Z,5.27
2022-12-27T18:58:06.688Z,5.54
2022-12-27T19:00:47.676Z,5.78
2022-12-27T19:03:17.183Z,5.73
2022-12-27T19:06:02.658Z,5.85
2022-12-27T19:08:34.678Z,5.87
2022-12-27T19:11:02.219Z,5.97
2022-12-27T19:13:35.678Z,5.96
2022-12-27T19:16:02.386Z,5.99
2022-12-27T19:18:36.134Z,6.02
2022-12-27T19:21:06.790Z,6.08
2022-12-27T19:23:36.303Z,6.06
2022-12-27T19:26:05.928Z,5.78
2022-12-27T19:28:33.571Z,5.65
2022-12-27T19:31:21.920Z,5.74
2022-12-27T19:33:53.909Z,5.90
2022-12-27T19:36:26.926Z,5.97
2022-12-27T19:38:53.910Z,6.05
2022-12-27T19:41:20.603Z,6.07
2022-12-27T19:43:47.516Z,6.08
2022-12-27T19:46:14.784Z,6.04
2022-12-27T19:48:41.773Z,6.04
2022-12-27T19:51:15.967Z,6.11
2022-12-27T19:53:44.793Z,5.86
2022-12-27T19:56:12.048Z,5.91
2022-12-27T19:58:39.076Z,5.99
2022-12-27T20:01:05.732Z,6.06
2022-12-27T20:03:32.659Z,6.01
2022-12-27T20:06:14.360Z,5.81
2022-12-27T20:08:49.847Z,5.83
2022-12-27T20:11:22.646Z,5.88
2022-12-27T20:13:50.060Z,5.80
2022-12-27T20:16:18.717Z,5.18
2022-12-27T20:18:46.305Z,5.24
2022-12-27T20:21:20.498Z,5.31
2022-12-27T20:23:48.105Z,5.14
2022-12-27T20:26:19.453Z,5.39
2022-12-27T20:28:46.437Z,5.57
2022-12-27T20:31:15.221Z,5.68
2022-12-27T20:33:42.453Z,5.70
2022-12-27T20:36:09.923Z,5.65
2022-12-27T20:38:39.283Z,5.67
2022-12-27T20:41:17.752Z,5.80
2022-12-27T20:43:44.902Z,5.67
2022-12-27T20:46:14.232Z,5.74
2022-12-27T20:48:43.553Z,5.70
2022-12-27T20:51:12.913Z,5.37
2022-12-27T20:53:39.534Z,5.12
2022-12-27T20:56:09.019Z,5.49
2022-12-27T20:58:35.954Z,5.40
2022-12-27T21:01:17.011Z,5.38
2022-12-27T21:03:44.733Z,5.45
2022-12-27T21:06:13.110Z,5.60
2022-12-27T21:08:46.460Z,5.60
2022-12-27T21:11:23.368Z,5.63
2022-12-27T21:13:50.513Z,5.70
2022-12-27T21:16:25.438Z,5.42
2022-12-27T21:18:52.520Z,5.35
2022-12-27T21:21:22.005Z,5.27
2022-12-27T21:23:48.851Z,5.37
2022-12-27T21:26:24.899Z,5.49
2022-12-27T21:28:51.896Z,5.56
2022-12-27T21:31:18.988Z,5.46
2022-12-27T21:33:46.063Z,5.28
2022-12-27T21:36:15.384Z,5.37
2022-12-27T21:38:42.388Z,4.96
2022-12-27T21:41:21.021Z,5.09
2022-12-27T21:43:49.198Z,4.70
2022-12-27T21:46:25.793Z,4.90
2022-12-27T21:49:03.982Z,4.94
2022-12-27T21:51:31.848Z,4.94
2022-12-27T21:53:58.664Z,4.90
2022-12-27T21:56:26.062Z,4.92
2022-12-27T21:58:55.430Z,4.69
2022-12-27T22:01:25.161Z,4.79
2022-12-27T22:03:53.230Z,4.84
2022-12-27T22:06:24.697Z,4.71
2022-12-27T22:08:54.708Z,4.90
2022-12-27T22:11:22.649Z,4.74
2022-12-27T22:13:49.520Z,4.84
2022-12-27T22:16:37.988Z,4.92
2022-12-27T22:19:09.905Z,4.71
2022-12-27T22:21:38.434Z,4.53
2022-12-27T22:24:05.856Z,4.67
2022-12-27T22:26:37.215Z,4.45
2022-12-27T22:29:06.710Z,4.39
2022-12-27T22:31:36.688Z,4.10
2022-12-27T22:34:05.005Z,4.35
2022-12-27T22:36:31.957Z,4.31
2022-12-27T22:38:59.803Z,4.48
2022-12-27T22:41:29.601Z,4.20
2022-12-27T22:44:01.885Z,4.13
2022-12-27T22:46:51.244Z,4.29
2022-12-27T22:49:17.225Z,4.23
2022-12-27T22:51:43.857Z,4.33
2022-12-27T22:54:10.506Z,4.11
2022-12-27T22:56:39.989Z,4.25
2022-12-27T22:59:11.506Z,4.20
2022-12-27T23:01:39.108Z,4.36
2022-12-27T23:04:08.445Z,4.38
2022-12-27T23:06:36.038Z,4.34
2022-12-27T23:09:04.278Z,4.25
2022-12-27T23:11:33.571Z,4.22
2022-12-27T23:14:06.704Z,4.32
2022-12-27T23:16:37.791Z,4.49
2022-12-27T23:19:04.830Z,4.32
2022-12-27T23:21:31.477Z,4.26
2022-12-27T23:23:58.221Z,3.91
2022-12-27T23:26:24.861Z,3.99
2022-12-27T23:28:52.842Z,4.10
2022-12-27T23:31:21.770Z,4.20
2022-12-27T23:33:48.831Z,4.06
2022-12-27T23:36:15.615Z,3.80
2022-12-27T23:38:43.122Z,3.84
2022-12-27T23:41:14.761Z,3.76
2022-12-27T23:43:56.979Z,3.75
2022-12-27T23:46:31.846Z,3.88
2022-12-27T23:49:00.976Z,3.78
2022-12-27T23:51:29.375Z,3.72
2022-12-27T23:53:56.454Z,3.53
2022-12-27T23:56:28.811Z,3.33
2022-12-27T23:58:57.495Z,3.49
